Time;durP1;ratioP1;P1;durP2;ratioP2;P2;SDS_P1;SDS_P2;PMS_P1;PMS_P2;Temp;Humidity;BMP_temperature;BMP_pressure;BME280_temperature;BME280_humidity;BME280_pressure;Samples;Min_cycle;Max_cycle;Signal;HPM_P1;HPM_P2
2022/12/29 00:01:27;;;;;;;3.03;2.58;;;7.50;1.00;;;;;;6233946;23;20174;-88
2022/12/29 00:03:54;;;;;;;2.67;2.40;;;7.60;1.00;;;;;;6235333;23;20179;-87
2022/12/29 00:06:22;;;;;;;5.43;2.55;;;7.90;1.00;;;;;;6238759;23;20179;-88
2022/12/29 00:08:49;;;;;;;6.28;2.90;;;7.70;1.00;;;;;;6235865;23;20187;-87
2022/12/29 00:11:18;;;;;;;2.60;2.40;;;7.70;1.00;;;;;;6235145;23;20519;-88
2022/12/29 00:16:30;;;;;;;2.80;2.60;;;7.90;1.00;;;;;;6235899;23;20183;-86
2022/12/29 00:18:57;;;;;;;3.75;2.63;;;8.00;99.90;;;;;;6222127;23;20255;-87
2022/12/29 00:35:44;;;;;;;7.60;3.88;;;8.00;99.90;;;;;;6159115;23;20169;-87
2022/12/29 00:46:26;;;;;;;3.20;2.05;;;8.00;99.90;;;;;;6236959;23;20166;-87
2022/12/29 00:51:38;;;;;;;2.40;2.20;;;8.00;99.90;;;;;;6240514;23;20155;-87
2022/12/29 00:54:06;;;;;;;2.00;1.90;;;8.00;99.90;;;;;;6242715;23;20401;-88
2022/12/29 00:56:33;;;;;;;2.10;1.90;;;8.00;99.90;;;;;;6242904;23;20438;-88
2022/12/29 00:59:01;;;;;;;2.00;1.90;;;8.00;99.90;;;;;;6235621;23;20693;-86
2022/12/29 01:01:28;;;;;;;3.67;2.80;;;8.00;99.90;;;;;;6235974;23;20187;-86
2022/12/29 01:03:55;;;;;;;1.97;1.77;;;8.00;99.90;;;;;;6243269;23;20390;-86
2022/12/29 01:06:22;;;;;;;2.42;2.15;;;8.00;99.90;;;;;;6243532;23;20475;-85
2022/12/29 01:10:09;;;;;;;3.03;2.70;;;8.00;99.90;;;;;;6243260;23;20195;-86
2022/12/29 01:11:36;;;;;;;2.33;2.13;;;8.30;99.90;;;;;;6237668;23;20415;-87
2022/12/29 01:14:03;;;;;;;4.13;2.17;;;8.00;99.90;;;;;;6238499;23;20388;-88
2022/12/29 01:16:30;;;;;;;4.90;3.42;;;7.90;99.90;;;;;;6238995;23;20392;-88
2022/12/29 01:18:57;;;;;;;7.10;4.00;;;;;;;;;;6239674;23;20195;-87
2022/12/29 01:21:24;;;;;;;5.40;4.30;;;8.00;99.90;;;;;;6230734;23;20895;-88
2022/12/29 01:23:51;;;;;;;4.40;3.10;;;8.00;99.90;;;;;;6230644;23;20714;-86
2022/12/29 01:26:19;;;;;;;3.08;2.53;;;8.00;99.90;;;;;;6231253;23;20233;-86
2022/12/29 01:28:47;;;;;;;2.50;2.30;;;8.00;99.90;;;;;;6232916;23;20196;-85
2022/12/29 01:31:15;;;;;;;3.00;2.70;;;8.00;99.90;;;;;;6238326;23;20391;-87
2022/12/29 01:33:43;;;;;;;2.85;2.65;;;8.00;99.90;;;;;;6243710;23;20195;-88
2022/12/29 01:36:12;;;;;;;5.57;3.70;;;7.90;99.90;;;;;;6233854;23;20187;-88
2022/12/29 01:38:40;;;;;;;5.15;4.15;;;8.00;99.90;;;;;;6233633;23;20421;-86
2022/12/29 01:41:09;;;;;;;6.70;4.10;;;8.00;99.90;;;;;;6233328;23;20179;-87
2022/12/29 01:43:41;;;;;;;5.50;4.65;;;8.10;99.90;;;;;;6232334;23;20433;-87
2022/12/29 01:46:19;;;;;;;6.07;4.33;;;8.10;99.90;;;;;;6240365;23;20163;-85
2022/12/29 01:48:48;;;;;;;9.90;5.67;;;8.00;99.90;;;;;;6244885;23;20438;-85
2022/12/29 01:51:16;;;;;;;10.05;5.35;;;7.70;99.90;;;;;;6231378;23;20423;-86
2022/12/29 01:53:45;;;;;;;6.57;3.65;;;8.10;99.90;;;;;;6241967;23;20190;-85
2022/12/29 01:56:16;;;;;;;6.20;4.05;;;8.00;99.90;;;;;;6242302;23;20205;-87
2022/12/29 01:58:47;;;;;;;2.67;2.40;;;7.90;99.90;;;;;;6234698;23;20283;-86
2022/12/29 02:01:19;;;;;;;4.00;3.60;;;7.90;99.90;;;;;;6233538;23;20549;-85
2022/12/29 02:03:46;;;;;;;4.50;2.65;;;7.80;99.90;;;;;;6235317;23;20151;-86
2022/12/29 02:06:19;;;;;;;3.20;2.88;;;7.80;99.90;;;;;;6236473;23;20214;-87
2022/12/29 02:08:48;;;;;;;2.50;2.30;;;7.70;99.90;;;;;;6233023;23;20237;-87
2022/12/29 02:11:16;;;;;;;3.40;2.80;;;7.80;99.90;;;;;;6232118;23;20186;-87
2022/12/29 02:13:43;;;;;;;3.08;2.88;;;7.70;99.90;;;;;;6232969;23;20179;-86
2022/12/29 02:16:21;;;;;;;5.07;2.65;;;8.00;1.00;;;;;;6231289;23;20179;-87
2022/12/29 02:18:56;;;;;;;3.08;2.17;;;7.80;99.90;;;;;;6231773;23;20195;-87
2022/12/29 02:21:48;;;;;;;3.40;2.65;;;7.70;99.90;;;;;;6233114;23;20218;-87
2022/12/29 02:24:43;;;;;;;2.33;2.13;;;7.90;99.90;;;;;;6231647;23;20214;-87
2022/12/29 02:27:40;;;;;;;3.67;2.30;;;7.90;99.90;;;;;;6231923;23;20279;-87
2022/12/29 02:30:16;;;;;;;2.45;2.25;;;7.90;99.90;;;;;;6231970;23;20215;-88
2022/12/29 02:32:52;;;;;;;2.80;2.60;;;7.90;99.90;;;;;;6231391;23;20178;-87
2022/12/29 02:35:30;;;;;;;4.10;2.45;;;7.90;99.90;;;;;;6232382;23;20417;-88
2022/12/29 02:38:06;;;;;;;2.37;2.13;;;7.60;99.90;;;;;;6232590;23;20205;-88
2022/12/29 02:40:40;;;;;;;2.42;2.20;;;7.90;99.90;;;;;;6233813;23;20365;-88
2022/12/29 02:43:19;;;;;;;3.35;2.58;;;7.90;99.90;;;;;;6231668;23;20170;-87
2022/12/29 02:45:50;;;;;;;5.43;2.80;;;8.00;99.90;;;;;;6231961;23;20158;-88
2022/12/29 02:48:25;;;;;;;2.17;2.05;;;8.00;99.90;;;;;;6231277;23;20417;-88
2022/12/29 02:50:58;;;;;;;2.97;2.55;;;8.10;99.90;;;;;;6232595;23;20552;-85
2022/12/29 02:56:08;;;;;;;4.22;2.10;;;8.10;99.90;;;;;;6231441;23;20390;-88
2022/12/29 02:58:35;;;;;;;2.20;2.00;;;8.20;83.00;;;;;;6231727;23;20250;-88
2022/12/29 03:01:24;;;;;;;2.07;1.87;;;8.20;1.00;;;;;;6231533;23;20926;-86
2022/12/29 03:04:16;;;;;;;2.30;2.13;;;8.30;1.00;;;;;;6231218;23;20461;-86
2022/12/29 03:06:52;;;;;;;3.27;2.90;;;8.30;80.60;;;;;;6238700;23;20437;-85
2022/12/29 03:09:27;;;;;;;2.57;2.37;;;8.40;1.00;;;;;;6243700;23;20442;-85
2022/12/29 03:12:08;;;;;;;2.55;2.03;;;8.50;1.00;;;;;;6243709;23;20395;-87
2022/12/29 03:17:36;;;;;;;2.40;2.20;;;8.60;1.00;;;;;;6231037;23;20409;-88
2022/12/29 03:20:08;;;;;;;2.80;2.00;;;8.60;1.00;;;;;;6231292;23;20167;-87
2022/12/29 03:22:40;;;;;;;1.95;1.85;;;8.60;1.00;;;;;;6231174;23;20219;-88
2022/12/29 03:25:11;;;;;;;2.27;2.07;;;8.60;1.00;;;;;;6231350;23;20247;-88
2022/12/29 03:27:42;;;;;;;2.33;2.13;;;8.70;1.00;;;;;;6230452;23;20450;-87
2022/12/29 03:30:10;;;;;;;2.33;2.13;;;8.60;1.00;;;;;;6231673;23;20235;-86
2022/12/29 03:32:44;;;;;;;2.60;2.40;;;8.70;1.00;;;;;;6230566;23;20799;-87
2022/12/29 03:35:16;;;;;;;2.30;2.00;;;8.60;1.00;;;;;;6230690;23;20421;-87
2022/12/29 03:37:47;;;;;;;2.33;2.13;;;8.70;1.00;;;;;;6230953;23;20919;-87
2022/12/29 03:40:13;;;;;;;2.73;1.97;;;8.70;1.00;;;;;;6232038;23;20390;-88
2022/12/29 03:42:41;;;;;;;3.20;2.13;;;8.70;1.00;;;;;;6230214;23;20421;-87
2022/12/29 03:45:10;;;;;;;2.33;1.90;;;8.70;1.00;;;;;;6230978;23;20445;-87
2022/12/29 03:47:37;;;;;;;2.10;2.00;;;;;;;;;;6232607;22;20487;-81
2022/12/29 03:50:04;;;;;;;2.33;2.13;;;8.80;1.00;;;;;;6252929;23;20501;-81
2022/12/29 03:52:32;;;;;;;2.90;2.10;;;8.80;1.00;;;;;;6252593;23;20419;-81
2022/12/29 03:54:59;;;;;;;2.17;1.80;;;8.80;1.00;;;;;;6252303;23;20405;-81
2022/12/29 03:57:29;;;;;;;4.97;2.30;;;8.80;1.00;;;;;;6245817;23;20510;-82
2022/12/29 03:59:56;;;;;;;2.50;2.30;;;8.80;1.00;;;;;;6222005;23;20960;-81
2022/12/29 04:02:23;;;;;;;2.73;2.43;;;8.90;1.00;;;;;;6222284;23;20464;-81
2022/12/29 04:04:50;;;;;;;2.73;2.53;;;8.90;1.00;;;;;;6221430;23;20384;-81
2022/12/29 04:07:17;;;;;;;2.57;2.30;;;9.00;1.00;;;;;;6221092;23;20485;-81
2022/12/29 04:09:45;;;;;;;2.70;2.50;;;8.90;1.00;;;;;;6220926;23;20421;-82
2022/12/29 04:12:13;;;;;;;2.50;2.07;;;8.90;1.00;;;;;;6224866;23;20409;-81
2022/12/29 04:14:40;;;;;;;3.50;2.23;;;8.90;1.00;;;;;;6225672;23;20408;-81
2022/12/29 04:17:07;;;;;;;3.60;2.33;;;9.10;1.00;;;;;;6234608;23;20404;-81
2022/12/29 04:19:34;;;;;;;4.70;2.70;;;8.80;1.00;;;;;;6241143;23;20381;-81
2022/12/29 04:21:59;;;;;;;3.20;2.40;;;8.90;1.00;;;;;;6235793;23;20388;-81
2022/12/29 04:24:26;;;;;;;1.80;1.70;;;9.00;1.00;;;;;;6223820;23;20373;-82
2022/12/29 04:26:54;;;;;;;2.33;1.80;;;9.00;1.00;;;;;;6222812;23;20179;-81
2022/12/29 04:29:21;;;;;;;2.40;2.20;;;9.00;1.00;;;;;;6222075;23;20534;-81
2022/12/29 04:31:48;;;;;;;2.27;2.07;;;8.90;1.00;;;;;;6222378;23;20459;-81
2022/12/29 04:34:15;;;;;;;2.00;1.80;;;8.90;1.00;;;;;;6239440;23;20395;-81
2022/12/29 04:36:42;;;;;;;4.53;2.00;;;9.00;1.00;;;;;;6241076;23;20451;-81
2022/12/29 04:39:09;;;;;;;3.00;2.30;;;8.80;1.00;;;;;;6242605;23;20420;-81
2022/12/29 04:41:36;;;;;;;2.33;2.10;;;9.00;1.00;;;;;;6241782;23;20449;-81
2022/12/29 04:44:04;;;;;;;3.13;2.40;;;8.70;1.00;;;;;;6234724;23;20414;-82
2022/12/29 04:46:31;;;;;;;2.90;2.57;;;9.00;1.00;;;;;;6223037;23;20413;-82
2022/12/29 04:48:57;;;;;;;3.33;2.40;;;9.00;1.00;;;;;;6221841;23;20433;-82
2022/12/29 04:51:24;;;;;;;2.50;2.17;;;9.00;1.00;;;;;;6222319;23;20474;-82
2022/12/29 04:53:51;;;;;;;2.40;2.20;;;9.00;1.00;;;;;;6222655;23;20408;-82
2022/12/29 04:56:18;;;;;;;4.40;3.00;;;9.00;1.00;;;;;;6228754;23;20410;-82
2022/12/29 04:58:45;;;;;;;3.20;2.50;;;9.00;1.00;;;;;;6223844;23;20490;-82
2022/12/29 05:01:13;;;;;;;2.73;2.53;;;8.80;1.00;;;;;;6225079;23;20476;-82
2022/12/29 05:03:40;;;;;;;2.13;2.03;;;9.00;1.00;;;;;;6225078;23;20460;-82
2022/12/29 05:06:07;;;;;;;3.80;2.13;;;9.10;1.00;;;;;;6224859;23;20874;-82
2022/12/29 05:08:34;;;;;;;2.80;2.60;;;9.10;1.00;;;;;;6225627;23;20401;-82
2022/12/29 05:11:01;;;;;;;2.63;2.43;;;9.10;1.00;;;;;;6227024;23;20519;-83
2022/12/29 05:13:28;;;;;;;3.00;2.00;;;9.10;1.00;;;;;;6243540;23;20391;-80
2022/12/29 05:15:55;;;;;;;2.53;2.37;;;9.20;1.00;;;;;;6244549;23;20405;-80
2022/12/29 05:18:23;;;;;;;2.10;1.90;;;9.20;1.00;;;;;;6235291;23;20428;-81
2022/12/29 05:20:50;;;;;;;3.10;2.07;;;9.20;1.00;;;;;;6232508;23;20440;-81
2022/12/29 05:23:17;;;;;;;2.03;1.93;;;9.20;1.00;;;;;;6245216;23;20388;-80
2022/12/29 05:25:45;;;;;;;3.07;2.30;;;9.30;1.00;;;;;;6245294;23;20386;-81
2022/12/29 05:28:12;;;;;;;4.57;2.43;;;9.20;1.00;;;;;;6236370;23;20452;-82
2022/12/29 05:30:39;;;;;;;3.73;2.70;;;9.30;1.00;;;;;;6222029;23;20521;-82
2022/12/29 05:33:06;;;;;;;2.73;1.83;;;9.30;1.00;;;;;;6219888;23;20920;-82
2022/12/29 05:35:34;;;;;;;2.50;2.30;;;9.40;1.00;;;;;;6221368;23;20420;-82
2022/12/29 05:38:01;;;;;;;2.60;2.40;;;9.40;1.00;;;;;;6221403;23;20407;-82
2022/12/29 05:40:28;;;;;;;2.60;2.40;;;9.40;1.00;;;;;;6222979;23;20449;-82
2022/12/29 05:42:55;;;;;;;3.50;2.50;;;9.40;1.00;;;;;;6222364;23;20463;-82
2022/12/29 05:45:22;;;;;;;2.30;2.10;;;9.40;1.00;;;;;;6222574;23;20396;-83
2022/12/29 05:47:48;;;;;;;2.10;1.93;;;9.40;1.00;;;;;;6227620;23;20416;-82
2022/12/29 05:50:15;;;;;;;2.00;1.83;;;9.40;1.00;;;;;;6237111;23;20469;-81
2022/12/29 05:52:44;;;;;;;2.13;2.03;;;9.50;1.00;;;;;;6233537;23;20417;-81
2022/12/29 05:55:11;;;;;;;2.23;1.93;;;9.50;1.00;;;;;;6224753;23;20493;-82
2022/12/29 05:57:38;;;;;;;5.53;2.00;;;9.60;1.00;;;;;;6223841;23;20461;-82
2022/12/29 06:00:06;;;;;;;3.93;2.00;;;9.70;1.00;;;;;;6223843;23;20470;-82
2022/12/29 06:02:33;;;;;;;3.37;3.17;;;9.70;1.00;;;;;;6222844;23;20397;-82
2022/12/29 06:05:00;;;;;;;2.67;2.40;;;9.60;1.00;;;;;;6222706;23;20464;-83
2022/12/29 06:07:27;;;;;;;1.80;1.63;;;9.80;99.90;;;;;;6222167;23;20430;-82
2022/12/29 06:09:55;;;;;;;2.53;2.03;;;9.80;1.00;;;;;;6221832;23;20441;-82
2022/12/29 06:12:22;;;;;;;4.13;1.87;;;9.80;99.90;;;;;;6221402;23;20398;-81
2022/12/29 06:14:49;;;;;;;2.17;2.07;;;9.80;1.00;;;;;;6222608;23;20417;-83
2022/12/29 06:17:16;;;;;;;2.87;2.10;;;10.20;1.00;;;;;;6222290;23;20438;-83
2022/12/29 06:19:43;;;;;;;1.90;1.80;;;9.80;1.00;;;;;;6228431;23;20438;-83
2022/12/29 06:22:11;;;;;;;3.00;1.93;;;10.10;1.00;;;;;;6236180;23;20413;-82
2022/12/29 06:24:38;;;;;;;2.80;2.03;;;9.80;1.00;;;;;;6235351;23;20498;-82
2022/12/29 06:27:06;;;;;;;2.03;1.87;;;10.10;1.00;;;;;;6223898;23;20441;-82
2022/12/29 06:29:34;;;;;;;2.50;2.30;;;9.80;99.90;;;;;;6223610;23;20403;-82
2022/12/29 06:32:01;;;;;;;6.70;4.23;;;9.80;99.90;;;;;;6224372;23;20468;-83
2022/12/29 06:34:28;;;;;;;2.87;2.67;;;9.80;99.90;;;;;;6224005;23;20496;-83
2022/12/29 06:36:55;;;;;;;3.37;2.33;;;9.80;1.00;;;;;;6222639;23;20531;-82
2022/12/29 06:39:22;;;;;;;3.30;2.67;;;9.80;1.00;;;;;;6222940;23;21010;-83
2022/12/29 06:41:48;;;;;;;2.83;1.80;;;9.70;1.00;;;;;;6222760;23;20467;-82
2022/12/29 06:44:17;;;;;;;1.93;1.70;;;9.70;1.00;;;;;;6231262;23;20445;-81
2022/12/29 06:46:43;;;;;;;2.73;1.97;;;9.80;1.00;;;;;;6221561;23;20408;-81
2022/12/29 06:49:10;;;;;;;2.43;2.23;;;9.80;1.00;;;;;;6220866;23;20409;-81
2022/12/29 06:51:37;;;;;;;1.90;1.80;;;9.80;1.00;;;;;;6222133;23;20446;-82
2022/12/29 06:54:04;;;;;;;2.83;2.17;;;9.80;1.00;;;;;;6234452;23;20390;-82
2022/12/29 06:56:31;;;;;;;2.33;1.80;;;9.80;1.00;;;;;;6239854;23;20373;-82
2022/12/29 06:58:59;;;;;;;4.37;2.23;;;9.80;1.00;;;;;;6244056;23;20397;-81
2022/12/29 07:01:28;;;;;;;1.80;1.70;;;9.80;1.00;;;;;;6238917;23;20441;-81
2022/12/29 07:03:55;;;;;;;2.30;2.10;;;9.90;1.00;;;;;;6233425;23;20381;-82
2022/12/29 07:06:22;;;;;;;1.70;1.60;;;9.90;1.00;;;;;;6224963;23;20412;-82
2022/12/29 07:08:48;;;;;;;2.20;2.00;;;9.80;1.00;;;;;;6224689;23;20405;-81
2022/12/29 07:11:15;;;;;;;3.63;2.10;;;9.80;1.00;;;;;;6225533;23;20496;-81
2022/12/29 07:13:42;;;;;;;2.00;1.73;;;9.70;1.00;;;;;;6227177;23;20403;-81
2022/12/29 07:16:10;;;;;;;2.10;1.47;;;9.80;1.00;;;;;;6227458;23;20490;-82
2022/12/29 07:18:39;;;;;;;3.03;1.50;;;9.70;1.00;;;;;;6223429;23;20430;-81
2022/12/29 07:21:07;;;;;;;1.90;1.80;;;9.80;1.00;;;;;;6224643;23;20763;-81
2022/12/29 07:23:34;;;;;;;2.73;2.53;;;9.80;1.00;;;;;;6225342;23;20404;-81
2022/12/29 07:26:01;;;;;;;3.80;2.00;;;10.00;1.00;;;;;;6227371;23;20403;-82
2022/12/29 07:28:29;;;;;;;2.73;2.00;;;9.80;1.00;;;;;;6223521;23;20426;-81
2022/12/29 07:30:56;;;;;;;1.70;1.60;;;9.90;1.00;;;;;;6223881;23;20449;-82
2022/12/29 07:33:23;;;;;;;2.10;1.87;;;9.90;1.00;;;;;;6224106;23;20489;-82
2022/12/29 07:35:52;;;;;;;1.90;1.80;;;9.90;1.00;;;;;;6224251;23;20810;-82
2022/12/29 07:38:18;;;;;;;1.80;1.70;;;10.00;1.00;;;;;;6222424;23;20430;-82
2022/12/29 07:40:45;;;;;;;3.13;1.63;;;9.80;1.00;;;;;;6224035;23;20373;-82
2022/12/29 07:43:12;;;;;;;2.20;2.10;;;10.00;1.00;;;;;;6224293;23;20779;-82
2022/12/29 07:45:39;;;;;;;2.57;2.33;;;10.10;1.00;;;;;;6225006;23;20388;-83
2022/12/29 07:48:07;;;;;;;2.27;1.80;;;10.00;1.00;;;;;;6227935;23;20514;-82
2022/12/29 07:50:34;;;;;;;2.20;1.70;;;10.00;1.00;;;;;;6223455;23;20416;-82
2022/12/29 07:53:02;;;;;;;2.00;1.60;;;10.00;1.00;;;;;;6224472;23;20881;-82
2022/12/29 07:55:29;;;;;;;2.53;1.93;;;10.00;1.00;;;;;;6224447;23;20763;-82
2022/12/29 07:57:57;;;;;;;3.13;1.83;;;10.00;1.00;;;;;;6223148;23;20401;-81
2022/12/29 08:00:24;;;;;;;1.90;1.80;;;10.10;1.00;;;;;;6223869;23;20755;-81
2022/12/29 08:02:51;;;;;;;3.57;1.97;;;10.10;1.00;;;;;;6224538;23;20410;-82
2022/12/29 08:05:18;;;;;;;1.90;1.70;;;10.10;1.00;;;;;;6222755;23;20472;-82
2022/12/29 08:07:46;;;;;;;1.67;1.57;;;10.10;1.00;;;;;;6222996;23;20463;-82
2022/12/29 08:10:15;;;;;;;2.30;2.10;;;10.10;1.00;;;;;;6223334;23;20469;-83
2022/12/29 08:12:43;;;;;;;2.23;1.80;;;10.10;1.00;;;;;;6224670;23;20409;-82
2022/12/29 08:15:12;;;;;;;3.70;1.80;;;10.10;1.00;;;;;;6230701;23;20464;-82
2022/12/29 08:17:39;;;;;;;2.30;1.60;;;10.20;99.90;;;;;;6235864;23;20426;-82
2022/12/29 08:20:07;;;;;;;3.03;1.97;;;10.20;99.90;;;;;;6234232;23;20384;-82
2022/12/29 08:22:34;;;;;;;2.80;2.57;;;10.20;99.90;;;;;;6229757;23;20738;-82
2022/12/29 08:25:00;;;;;;;2.20;2.00;;;10.30;99.90;;;;;;6227967;23;20441;-83
2022/12/29 08:27:29;;;;;;;3.33;2.53;;;10.30;1.00;;;;;;6228849;23;20423;-82
2022/12/29 08:29:55;;;;;;;3.83;2.00;;;10.20;99.90;;;;;;6236725;23;20949;-82
2022/12/29 08:32:22;;;;;;;2.77;2.47;;;10.30;1.00;;;;;;6237793;23;20402;-82
2022/12/29 08:34:49;;;;;;;2.10;1.97;;;10.30;1.00;;;;;;6232966;23;20437;-81
2022/12/29 08:37:16;;;;;;;2.00;1.90;;;10.00;99.90;;;;;;6228672;23;20461;-82
2022/12/29 08:39:42;;;;;;;2.30;1.77;;;10.20;81.60;;;;;;6228333;23;20411;-82
2022/12/29 08:42:09;;;;;;;1.80;1.70;;;9.70;99.90;;;;;;6226078;23;20441;-82
2022/12/29 08:44:37;;;;;;;1.80;1.70;;;10.30;99.90;;;;;;6224272;23;20395;-82
2022/12/29 08:47:04;;;;;;;2.50;1.97;;;10.60;99.90;;;;;;6225227;23;20912;-81
2022/12/29 08:49:33;;;;;;;3.57;1.90;;;10.30;1.00;;;;;;6224358;23;20414;-83
2022/12/29 08:52:00;;;;;;;2.30;2.10;;;10.30;1.00;;;;;;6223535;23;20514;-82
2022/12/29 08:54:26;;;;;;;2.43;2.17;;;10.20;1.00;;;;;;6224731;23;20943;-82
2022/12/29 08:56:53;;;;;;;2.13;1.40;;;10.40;99.90;;;;;;6225704;23;20878;-82
2022/12/29 08:59:20;;;;;;;2.87;1.80;;;10.20;98.70;;;;;;6227648;23;20458;-82
2022/12/29 09:01:48;;;;;;;1.87;1.77;;;10.20;87.50;;;;;;6230665;23;20423;-83
2022/12/29 09:04:15;;;;;;;2.10;2.00;;;10.20;72.90;;;;;;6230300;23;20441;-82
2022/12/29 09:06:42;;;;;;;1.90;1.80;;;10.30;99.90;;;;;;6231007;23;20872;-82
2022/12/29 09:09:10;;;;;;;1.83;1.70;;;10.30;15.90;;;;;;6231903;23;20424;-83
2022/12/29 09:11:37;;;;;;;2.63;2.40;;;10.40;1.00;;;;;;6237354;23;20494;-82
2022/12/29 09:14:04;;;;;;;3.13;1.97;;;10.40;1.00;;;;;;6238064;23;20421;-82
2022/12/29 09:16:30;;;;;;;7.03;2.07;;;10.30;1.00;;;;;;6239573;23;20387;-82
2022/12/29 09:18:59;;;;;;;3.40;2.13;;;10.30;1.00;;;;;;6242591;23;20429;-80
2022/12/29 09:21:25;;;;;;;1.87;1.70;;;10.30;1.00;;;;;;6243685;23;20405;-81
2022/12/29 09:23:52;;;;;;;2.57;1.80;;;10.30;1.00;;;;;;6243111;23;20395;-80
2022/12/29 09:26:19;;;;;;;6.27;3.80;;;10.40;1.00;;;;;;6235487;23;20430;-81
2022/12/29 09:28:47;;;;;;;3.00;1.87;;;10.40;1.00;;;;;;6228647;23;20412;-82
2022/12/29 09:31:14;;;;;;;4.83;2.27;;;10.40;1.00;;;;;;6231719;23;20438;-83
2022/12/29 09:33:41;;;;;;;2.60;2.00;;;10.90;1.00;;;;;;6241416;23;20399;-82
2022/12/29 09:36:10;;;;;;;1.87;1.70;;;10.50;1.00;;;;;;6240967;23;20407;-82
2022/12/29 09:38:37;;;;;;;2.57;1.83;;;10.70;1.00;;;;;;6239170;23;20434;-81
2022/12/29 09:41:12;;;;;;;1.83;1.73;;;10.70;99.90;;;;;;6224127;23;20377;-83
2022/12/29 09:44:12;;;;;;;4.87;2.50;;;10.60;1.00;;;;;;6224275;23;20678;-82
2022/12/29 09:46:43;;;;;;;3.10;2.23;;;10.60;1.00;;;;;;6143084;23;20414;-82
2022/12/29 09:49:22;;;;;;;2.07;1.97;;;10.70;99.90;;;;;;6253412;22;20487;-85
2022/12/29 09:51:54;;;;;;;2.30;2.10;;;10.70;99.90;;;;;;6274084;22;20435;-87
2022/12/29 09:54:32;;;;;;;2.30;1.73;;;10.80;99.90;;;;;;6265564;22;20361;-87
2022/12/29 09:56:59;;;;;;;2.20;1.97;;;10.80;99.90;;;;;;6265690;22;20428;-86
2022/12/29 09:59:39;;;;;;;2.70;1.87;;;10.80;99.90;;;;;;6239389;22;20456;-86
2022/12/29 10:02:21;;;;;;;3.67;1.70;;;10.90;99.90;;;;;;6234838;23;20388;-86
2022/12/29 10:04:48;;;;;;;2.20;1.97;;;11.10;1.00;;;;;;6234770;23;20365;-87
2022/12/29 10:07:26;;;;;;;2.37;2.13;;;11.20;1.00;;;;;;6233892;23;20380;-86
2022/12/29 10:10:02;;;;;;;2.07;1.87;;;11.20;1.00;;;;;;6225441;23;20446;-86
2022/12/29 10:12:41;;;;;;;2.17;1.60;;;11.20;1.00;;;;;;6227792;23;20426;-86
2022/12/29 10:15:19;;;;;;;1.70;1.60;;;11.20;1.00;;;;;;6230813;23;20394;-87
2022/12/29 10:17:54;;;;;;;2.03;1.60;;;11.60;1.00;;;;;;6230607;23;20394;-87
2022/12/29 10:20:31;;;;;;;3.10;1.67;;;11.30;99.90;;;;;;6230919;23;20883;-86
2022/12/29 10:23:14;;;;;;;3.40;2.20;;;11.20;1.00;;;;;;6231428;23;20418;-87
2022/12/29 10:25:44;;;;;;;2.23;2.03;;;11.30;1.00;;;;;;6233455;23;20364;-87
2022/12/29 10:28:18;;;;;;;3.83;2.97;;;11.30;1.00;;;;;;6233029;23;20941;-87
2022/12/29 10:30:48;;;;;;;2.53;2.33;;;11.40;99.90;;;;;;6236922;23;20369;-85
2022/12/29 10:33:21;;;;;;;2.93;2.13;;;11.60;99.90;;;;;;6242372;23;20872;-87
2022/12/29 10:35:49;;;;;;;4.17;2.20;;;11.60;1.00;;;;;;6242399;23;20371;-88
2022/12/29 10:38:26;;;;;;;2.60;1.93;;;11.60;89.30;;;;;;6234987;23;20400;-87
2022/12/29 10:40:58;;;;;;;2.00;1.80;;;11.60;99.90;;;;;;6234943;23;20422;-87
2022/12/29 10:43:31;;;;;;;4.93;1.97;;;11.60;99.90;;;;;;6235819;23;20365;-86
2022/12/29 10:46:02;;;;;;;1.57;1.27;;;11.70;99.90;;;;;;6234648;23;20421;-87
2022/12/29 10:48:32;;;;;;;2.17;1.50;;;11.50;1.00;;;;;;6235060;23;20417;-87
2022/12/29 10:51:02;;;;;;;4.07;1.90;;;11.70;1.00;;;;;;6240688;23;20458;-86
2022/12/29 10:53:41;;;;;;;2.03;1.87;;;12.20;1.00;;;;;;6240691;23;20402;-87
2022/12/29 10:56:18;;;;;;;3.57;2.00;;;11.90;1.00;;;;;;6238568;23;20372;-87
2022/12/29 10:58:49;;;;;;;2.57;1.40;;;11.90;1.00;;;;;;6242439;23;20429;-86
2022/12/29 11:01:17;;;;;;;3.03;1.90;;;12.10;99.90;;;;;;6239663;23;20875;-86
2022/12/29 11:03:59;;;;;;;4.30;1.67;;;12.10;99.90;;;;;;6233949;23;20407;-86
2022/12/29 11:06:31;;;;;;;2.67;2.33;;;12.10;99.90;;;;;;6232793;23;20766;-87
2022/12/29 11:09:09;;;;;;;1.63;1.53;;;12.10;99.90;;;;;;6232815;23;20493;-86
2022/12/29 11:11:37;;;;;;;1.50;1.40;;;12.10;99.90;;;;;;6231537;23;20507;-87
2022/12/29 11:14:13;;;;;;;2.50;1.43;;;12.10;99.90;;;;;;6235380;23;20429;-87
2022/12/29 11:16:41;;;;;;;3.33;1.93;;;12.10;99.90;;;;;;6244613;23;20378;-86
2022/12/29 11:19:21;;;;;;;3.60;1.67;;;12.10;99.90;;;;;;6236874;23;20904;-86
2022/12/29 11:21:48;;;;;;;2.17;1.60;;;12.10;99.90;;;;;;6226434;23;20357;-86
2022/12/29 11:24:22;;;;;;;2.33;1.30;;;12.10;1.00;;;;;;6232328;23;20553;-86
2022/12/29 11:26:52;;;;;;;2.27;1.53;;;12.10;1.00;;;;;;6240752;23;20362;-86
2022/12/29 11:29:25;;;;;;;1.40;1.30;;;12.00;99.90;;;;;;6240434;23;20493;-88
2022/12/29 11:31:54;;;;;;;1.83;1.73;;;12.00;99.90;;;;;;6234499;23;20422;-86
2022/12/29 11:34:25;;;;;;;2.20;1.60;;;11.90;99.90;;;;;;6233370;23;20411;-87
2022/12/29 11:36:54;;;;;;;1.60;1.20;;;11.90;1.00;;;;;;6231867;23;20440;-87
2022/12/29 11:39:30;;;;;;;2.83;1.50;;;11.80;20.40;;;;;;6233945;23;20431;-86
2022/12/29 11:41:57;;;;;;;1.77;1.40;;;11.70;99.90;;;;;;6234911;23;20779;-87
2022/12/29 11:44:25;;;;;;;2.03;1.83;;;11.70;1.00;;;;;;6238398;23;20457;-86
2022/12/29 11:46:53;;;;;;;3.63;2.33;;;11.60;99.90;;;;;;6237193;23;20434;-86
2022/12/29 11:49:22;;;;;;;4.77;3.20;;;11.50;99.90;;;;;;6232998;23;20434;-87
2022/12/29 11:51:52;;;;;;;3.03;2.30;;;11.40;99.90;;;;;;6230404;23;20477;-87
2022/12/29 11:54:23;;;;;;;2.67;2.43;;;11.80;1.00;;;;;;6231041;23;20743;-87
2022/12/29 11:56:52;;;;;;;1.63;1.53;;;11.40;1.00;;;;;;6229815;23;20466;-87
2022/12/29 11:59:36;;;;;;;2.10;1.90;;;11.30;1.00;;;;;;6229347;23;20494;-87
2022/12/29 12:02:16;;;;;;;2.73;1.50;;;11.30;99.90;;;;;;6232098;23;20718;-86
2022/12/29 12:04:43;;;;;;;4.97;3.97;;;11.20;1.00;;;;;;6234248;23;20361;-87
2022/12/29 12:07:16;;;;;;;1.47;1.37;;;11.00;99.90;;;;;;6237906;23;20395;-87
2022/12/29 12:09:47;;;;;;;1.50;1.40;;;11.00;99.90;;;;;;6243878;23;20426;-87
2022/12/29 12:12:25;;;;;;;2.90;2.27;;;10.80;1.00;;;;;;6243736;23;20525;-86
2022/12/29 12:14:59;;;;;;;2.50;1.87;;;10.50;1.00;;;;;;6234477;23;20387;-88
2022/12/29 12:17:37;;;;;;;3.70;1.77;;;10.30;1.00;;;;;;6230224;23;20395;-86
2022/12/29 12:20:17;;;;;;;2.43;1.60;;;10.30;1.00;;;;;;6229229;23;20926;-87
2022/12/29 12:22:49;;;;;;;2.70;1.60;;;10.20;1.00;;;;;;6228971;23;20390;-87
2022/12/29 12:25:21;;;;;;;2.90;1.53;;;10.20;1.00;;;;;;6230374;23;20414;-87
2022/12/29 12:27:53;;;;;;;2.70;2.50;;;10.20;15.70;;;;;;6232197;23;20415;-86
2022/12/29 12:30:22;;;;;;;2.10;1.90;;;10.10;1.00;;;;;;6242615;23;20375;-86
2022/12/29 12:32:55;;;;;;;1.93;1.80;;;10.10;1.00;;;;;;6242200;23;20438;-85
2022/12/29 12:35:27;;;;;;;1.87;1.60;;;10.10;1.00;;;;;;6241469;23;20398;-87
2022/12/29 12:38:16;;;;;;;2.53;1.40;;;10.10;1.00;;;;;;6240559;23;20422;-87
2022/12/29 12:41:07;;;;;;;1.90;1.77;;;10.00;1.00;;;;;;6231716;23;20373;-88
2022/12/29 12:43:50;;;;;;;2.00;1.67;;;9.90;1.00;;;;;;6231893;23;20480;-87
2022/12/29 12:46:48;;;;;;;2.10;1.90;;;10.20;99.90;;;;;;6231485;23;20779;-87
2022/12/29 12:49:51;;;;;;;3.33;2.70;;;9.90;30.30;;;;;;6232376;23;20430;-88
2022/12/29 12:52:29;;;;;;;1.50;1.40;;;9.80;49.50;;;;;;6208892;23;20438;-87
2022/12/29 12:55:14;;;;;;;2.33;1.80;;;9.80;88.90;;;;;;6228406;23;20465;-86
2022/12/29 12:57:51;;;;;;;3.50;2.00;;;10.20;99.90;;;;;;6227564;23;20378;-87
2022/12/29 13:00:23;;;;;;;1.87;1.70;;;9.70;99.90;;;;;;6234828;23;20414;-88
2022/12/29 13:03:04;;;;;;;1.93;1.77;;;9.70;99.90;;;;;;6230946;23;20391;-87
2022/12/29 13:05:48;;;;;;;2.50;1.90;;;9.70;99.90;;;;;;6230520;23;20418;-87
2022/12/29 13:08:33;;;;;;;4.50;1.57;;;9.70;99.90;;;;;;6228880;23;20423;-87
2022/12/29 13:11:10;;;;;;;2.77;1.83;;;9.60;99.90;;;;;;6232450;23;20361;-86
2022/12/29 13:13:58;;;;;;;2.47;1.83;;;9.60;99.90;;;;;;6238354;23;20401;-87
2022/12/29 13:16:34;;;;;;;1.80;1.60;;;9.60;99.90;;;;;;6238755;23;20454;-84
2022/12/29 13:19:07;;;;;;;1.17;1.10;;;9.60;99.90;;;;;;6242763;23;20426;-87
2022/12/29 13:21:48;;;;;;;1.97;1.33;;;9.60;99.90;;;;;;6239930;23;20397;-87
2022/12/29 13:24:26;;;;;;;3.70;2.00;;;9.50;99.90;;;;;;6235730;23;20418;-87
2022/12/29 13:27:00;;;;;;;2.20;2.00;;;10.20;99.90;;;;;;6235706;23;20390;-87
2022/12/29 13:29:34;;;;;;;1.83;1.50;;;9.70;99.90;;;;;;6234972;23;20425;-87
2022/12/29 13:32:17;;;;;;;3.47;2.10;;;9.70;99.90;;;;;;6235158;23;21063;-87
2022/12/29 13:34:51;;;;;;;3.30;1.77;;;9.70;99.90;;;;;;6235031;23;20391;-87
2022/12/29 13:37:22;;;;;;;2.23;1.53;;;9.70;99.90;;;;;;6234923;23;20413;-87
2022/12/29 13:39:56;;;;;;;3.60;1.70;;;9.70;99.90;;;;;;6234988;23;20484;-88
2022/12/29 13:42:24;;;;;;;1.70;1.60;;;9.70;99.90;;;;;;6238025;23;20373;-85
2022/12/29 13:44:58;;;;;;;2.67;2.30;;;9.70;99.90;;;;;;6244627;23;20384;-85
2022/12/29 13:47:31;;;;;;;1.60;1.50;;;10.00;99.90;;;;;;6240588;23;20366;-87
2022/12/29 13:50:01;;;;;;;2.00;1.60;;;9.70;99.90;;;;;;6239614;23;20397;-86
2022/12/29 13:52:35;;;;;;;2.20;1.40;;;9.80;99.90;;;;;;6239745;23;20800;-87